Time;durP1;ratioP1;P1;durP2;ratioP2;P2;SDS_P1;SDS_P2;PMS_P1;PMS_P2;Temp;Humidity;BMP_temperature;BMP_pressure;BME280_temperature;BME280_humidity;BME280_pressure;Samples;Min_cycle;Max_cycle;Signal;HPM_P1;HPM_P2
2023/05/15 00:01:58;;;;;;;;;;;;;;;13.19;100.00;101403.47;10583617;28;19969;-63
2023/05/15 00:07:00;;;;;;;;;;;;;;;12.88;100.00;101421.03;10583432;28;19924;-63
2023/05/15 00:12:03;;;;;;;;;;;;;;;12.68;100.00;101409.03;10581450;28;20324;-63
2023/05/15 00:17:06;;;;;;;;;;;;;;;12.54;100.00;101406.31;10582271;28;19948;-63
2023/05/15 00:22:08;;;;;;;;;;;;;;;12.38;100.00;101403.72;10583591;28;19973;-63
2023/05/15 00:27:10;;;;;;;;;;;;;;;12.62;100.00;101390.97;10583494;28;19972;-63
2023/05/15 00:32:13;;;;;;;;;;;;;;;12.29;100.00;101397.19;10581562;28;20382;-63
2023/05/15 00:37:15;;;;;;;;;;;;;;;12.33;100.00;101393.44;10581581;28;19924;-63
2023/05/15 00:42:17;;;;;;;;;;;;;;;12.25;100.00;101388.66;10581968;28;19973;-63
2023/05/15 00:47:19;;;;;;;;;;;;;;;12.58;100.00;101378.97;10581162;28;19954;-63
2023/05/15 00:52:22;;;;;;;;;;;;;;;12.44;100.00;101370.06;10582420;28;19924;-63
2023/05/15 00:57:24;;;;;;;;;;;;;;;12.35;100.00;101364.50;10563770;28;19924;-63
2023/05/15 01:02:27;;;;;;;;;;;;;;;12.45;100.00;101361.25;10567987;28;19928;-63
2023/05/15 01:07:29;;;;;;;;;;;;;;;12.35;100.00;101346.09;10589224;28;20022;-63
2023/05/15 01:12:31;;;;;;;;;;;;;;;12.60;100.00;101345.56;10590998;28;19972;-64
2023/05/15 01:17:34;;;;;;;;;;;;;;;12.41;100.00;101357.13;10572768;28;19923;-63
2023/05/15 01:22:42;;;;;;;;;;;;;;;11.77;100.00;101371.97;10571732;28;19931;-64
2023/05/15 01:27:48;;;;;;;;;;;;;;;12.21;100.00;101357.38;10589699;28;20336;-63
2023/05/15 01:33:01;;;;;;;;;;;;;;;11.99;100.00;101366.44;10590235;28;19973;-63
2023/05/15 01:38:22;;;;;;;;;;;;;;;12.05;100.00;101368.72;10588786;28;19924;-63
2023/05/15 01:43:26;;;;;;;;;;;;;;;11.97;100.00;101372.69;10587893;28;19923;-63
2023/05/15 01:48:28;;;;;;;;;;;;;;;12.35;100.00;101354.81;10588843;28;19969;-63
2023/05/15 01:53:31;;;;;;;;;;;;;;;12.24;100.00;101350.19;10570466;28;20329;-63
2023/05/15 01:58:33;;;;;;;;;;;;;;;12.25;100.00;101345.78;10587559;28;20286;-63
2023/05/15 02:03:35;;;;;;;;;;;;;;;11.99;100.00;101349.84;10568045;28;19924;-63
2023/05/15 02:08:37;;;;;;;;;;;;;;;12.10;100.00;101339.59;10570849;28;19958;-64
2023/05/15 02:13:40;;;;;;;;;;;;;;;12.09;100.00;101351.03;10587191;28;19924;-63
2023/05/15 02:18:42;;;;;;;;;;;;;;;12.18;100.00;101345.25;10569091;28;20401;-63
2023/05/15 02:23:44;;;;;;;;;;;;;;;12.09;100.00;101348.41;10587477;28;19970;-63
2023/05/15 02:28:50;;;;;;;;;;;;;;;12.17;100.00;101340.97;10587128;28;19977;-63
2023/05/15 02:33:54;;;;;;;;;;;;;;;11.84;100.00;101349.69;10569807;28;19924;-63
2023/05/15 02:38:57;;;;;;;;;;;;;;;11.96;100.00;101350.00;10567984;28;19923;-63
2023/05/15 02:43:59;;;;;;;;;;;;;;;12.21;100.00;101334.59;10585758;28;19923;-63
2023/05/15 02:49:01;;;;;;;;;;;;;;;12.19;100.00;101339.09;10567758;28;19947;-63
2023/05/15 02:54:04;;;;;;;;;;;;;;;12.27;100.00;101330.78;10568182;28;19923;-63
2023/05/15 02:59:06;;;;;;;;;;;;;;;12.22;100.00;101327.56;10584598;28;19928;-63
2023/05/15 03:04:08;;;;;;;;;;;;;;;11.84;100.00;101333.13;10586218;28;19969;-63
2023/05/15 03:09:11;;;;;;;;;;;;;;;11.88;100.00;101326.78;10573957;22;19928;-63
2023/05/15 03:14:13;;;;;;;;;;;;;;;11.75;100.00;101329.22;10543450;28;19924;-63
2023/05/15 03:19:15;;;;;;;;;;;;;;;11.68;100.00;101336.56;10584883;28;19927;-63
2023/05/15 03:24:18;;;;;;;;;;;;;;;11.53;100.00;101338.22;10580830;28;19927;-64
2023/05/15 03:29:20;;;;;;;;;;;;;;;11.69;100.00;101338.25;10585086;28;19924;-63
2023/05/15 03:34:22;;;;;;;;;;;;;;;11.36;100.00;101340.88;10585481;28;19931;-63
2023/05/15 03:39:24;;;;;;;;;;;;;;;11.42;100.00;101351.06;10583386;28;20554;-63
2023/05/15 03:44:28;;;;;;;;;;;;;;;11.55;100.00;101343.41;10581643;28;19960;-63
2023/05/15 03:49:30;;;;;;;;;;;;;;;11.53;100.00;101343.47;10583604;28;19924;-63
2023/05/15 03:54:32;;;;;;;;;;;;;;;11.44;100.00;101346.56;10582926;28;19977;-63
2023/05/15 03:59:35;;;;;;;;;;;;;;;11.74;100.00;101347.66;10563193;28;19924;-63
2023/05/15 04:04:37;;;;;;;;;;;;;;;11.24;100.00;101349.38;10583024;28;19924;-63
2023/05/15 04:09:39;;;;;;;;;;;;;;;11.59;100.00;101352.78;10583262;28;19988;-63
2023/05/15 04:14:41;;;;;;;;;;;;;;;11.44;100.00;101343.09;10582854;28;19923;-64
2023/05/15 04:19:46;;;;;;;;;;;;;;;11.73;100.00;101345.97;10581029;28;19927;-64
2023/05/15 04:24:48;;;;;;;;;;;;;;;11.67;100.00;101349.78;10583546;28;19981;-64
2023/05/15 04:29:51;;;;;;;;;;;;;;;12.30;100.00;101343.72;10582753;28;19927;-63
2023/05/15 04:34:53;;;;;;;;;;;;;;;12.24;100.00;101344.09;10580061;28;19984;-63
2023/05/15 04:39:55;;;;;;;;;;;;;;;12.42;100.00;101340.44;10579258;28;19939;-63
2023/05/15 04:44:58;;;;;;;;;;;;;;;12.31;100.00;101331.47;10583051;28;19931;-64
2023/05/15 04:50:01;;;;;;;;;;;;;;;12.26;100.00;101332.56;10579593;28;19977;-63
2023/05/15 04:55:04;;;;;;;;;;;;;;;12.18;100.00;101331.31;10563982;28;20278;-63
2023/05/15 05:00:10;;;;;;;;;;;;;;;12.06;100.00;101359.91;10578941;28;19924;-63
2023/05/15 05:05:13;;;;;;;;;;;;;;;12.14;100.00;101367.38;10582716;28;20022;-63
2023/05/15 05:10:15;;;;;;;;;;;;;;;12.49;100.00;101367.19;10563885;28;19928;-63
2023/05/15 05:15:18;;;;;;;;;;;;;;;12.27;100.00;101380.66;10579495;28;19931;-63
2023/05/15 05:20:20;;;;;;;;;;;;;;;11.84;100.00;101385.59;10577401;28;19924;-63
2023/05/15 05:25:22;;;;;;;;;;;;;;;12.31;100.00;101389.25;10581409;28;20430;-63
2023/05/15 05:30:24;;;;;;;;;;;;;;;12.04;100.00;101384.56;10582165;28;19923;-63
2023/05/15 05:35:27;;;;;;;;;;;;;;;11.95;100.00;101401.63;10579532;28;19924;-63
2023/05/15 05:40:29;;;;;;;;;;;;;;;12.15;100.00;101395.31;10551231;28;19935;-64
2023/05/15 05:45:31;;;;;;;;;;;;;;;11.75;100.00;101393.94;10539054;28;19931;-63
2023/05/15 05:50:33;;;;;;;;;;;;;;;11.83;100.00;101402.25;10546288;28;20268;-63
2023/05/15 05:55:35;;;;;;;;;;;;;;;12.08;100.00;101400.03;10539293;28;19976;-64
2023/05/15 06:00:38;;;;;;;;;;;;;;;12.42;100.00;101392.09;10584152;28;19924;-64
2023/05/15 06:05:40;;;;;;;;;;;;;;;12.48;100.00;101390.91;10589037;28;19931;-64
2023/05/15 06:10:42;;;;;;;;;;;;;;;12.74;100.00;101394.69;10588022;28;19924;-64
2023/05/15 06:15:45;;;;;;;;;;;;;;;13.12;100.00;101392.47;10583368;28;19931;-64
2023/05/15 06:20:47;;;;;;;;;;;;;;;12.77;100.00;101391.88;10586047;28;19924;-63
2023/05/15 06:25:49;;;;;;;;;;;;;;;12.68;100.00;101393.28;10588261;28;19928;-63
2023/05/15 06:30:51;;;;;;;;;;;;;;;13.11;99.93;101380.28;10570015;28;19927;-63
2023/05/15 06:35:54;;;;;;;;;;;;;;;13.21;99.62;101383.19;10565568;28;20026;-63
2023/05/15 06:40:56;;;;;;;;;;;;;;;13.04;100.00;101380.72;10577585;28;19924;-63
2023/05/15 06:45:58;;;;;;;;;;;;;;;13.27;99.54;101385.47;10586801;28;20436;-66
2023/05/15 06:51:00;;;;;;;;;;;;;;;13.29;99.50;101388.00;10587243;28;19969;-66
2023/05/15 06:56:02;;;;;;;;;;;;;;;13.97;92.91;101378.66;10586973;28;19931;-66
2023/05/15 07:01:06;;;;;;;;;;;;;;;13.51;94.10;101391.06;10532796;28;19993;-66
2023/05/15 07:06:08;;;;;;;;;;;;;;;13.28;93.99;101386.31;10542650;28;19931;-66
2023/05/15 07:11:10;;;;;;;;;;;;;;;14.09;89.13;101383.19;10501156;28;19924;-66
2023/05/15 07:16:12;;;;;;;;;;;;;;;14.71;86.37;101393.28;10502704;28;19931;-66
2023/05/15 07:21:15;;;;;;;;;;;;;;;14.64;85.97;101382.31;10530603;28;20383;-66
2023/05/15 07:26:17;;;;;;;;;;;;;;;15.49;82.28;101378.44;10537488;28;20413;-66
2023/05/15 07:31:32;;;;;;;;;;;;;;;15.62;83.21;101379.28;10530313;28;19931;-66
2023/05/15 07:36:34;;;;;;;;;;;;;;;15.69;79.23;101364.69;10539564;28;19931;-66
2023/05/15 07:41:37;;;;;;;;;;;;;;;16.21;78.74;101369.91;10534642;28;19924;-66
2023/05/15 07:46:39;;;;;;;;;;;;;;;16.46;74.08;101359.22;10514145;28;19989;-66
2023/05/15 07:51:41;;;;;;;;;;;;;;;17.55;71.90;101368.72;10481102;28;19955;-67
2023/05/15 07:56:43;;;;;;;;;;;;;;;16.71;71.43;101360.91;10530361;28;19924;-66
2023/05/15 08:01:46;;;;;;;;;;;;;;;16.46;70.40;101359.22;10543399;28;19931;-66
2023/05/15 08:06:48;;;;;;;;;;;;;;;17.69;68.37;101358.84;10525262;28;19931;-67
2023/05/15 08:11:50;;;;;;;;;;;;;;;17.91;68.69;101366.78;10566812;28;19924;-67
2023/05/15 08:16:52;;;;;;;;;;;;;;;17.39;68.04;101365.56;10566585;28;19923;-66
2023/05/15 08:21:55;;;;;;;;;;;;;;;18.13;67.05;101357.97;10584846;28;19931;-66
2023/05/15 08:26:57;;;;;;;;;;;;;;;17.97;68.82;101352.22;10584419;28;19924;-66
2023/05/15 08:32:00;;;;;;;;;;;;;;;19.61;62.37;101345.66;10583803;28;20378;-67
2023/05/15 08:37:03;;;;;;;;;;;;;;;19.45;62.80;101351.47;10584245;28;19949;-66
2023/05/15 08:42:08;;;;;;;;;;;;;;;19.00;62.88;101353.59;10565977;28;19923;-67
2023/05/15 08:47:10;;;;;;;;;;;;;;;19.68;62.78;101346.78;10583705;28;20354;-64
2023/05/15 08:52:12;;;;;;;;;;;;;;;18.74;61.30;101341.50;10583395;28;20297;-65
2023/05/15 08:57:15;;;;;;;;;;;;;;;19.75;60.02;101333.00;10542664;28;19935;-65
2023/05/15 09:02:17;;;;;;;;;;;;;;;18.94;61.59;101336.34;10520059;28;19928;-64
2023/05/15 09:07:20;;;;;;;;;;;;;;;20.06;57.14;101336.47;10517263;28;19947;-65
2023/05/15 09:12:23;;;;;;;;;;;;;;;19.91;59.97;101324.53;10499692;28;19932;-65
2023/05/15 09:17:25;;;;;;;;;;;;;;;19.40;59.69;101316.50;10498472;28;19925;-65
2023/05/15 09:22:27;;;;;;;;;;;;;;;20.14;59.35;101320.66;10501058;28;19974;-65
2023/05/15 09:27:29;;;;;;;;;;;;;;;20.73;58.32;101321.53;10489037;28;19928;-65
2023/05/15 09:32:32;;;;;;;;;;;;;;;19.66;63.56;101331.97;10488696;28;20367;-65
2023/05/15 09:37:34;;;;;;;;;;;;;;;19.55;62.79;101332.06;10488395;28;19924;-65
2023/05/15 09:42:36;;;;;;;;;;;;;;;19.75;61.61;101327.69;10505214;28;19924;-64
2023/05/15 09:47:38;;;;;;;;;;;;;;;19.85;61.29;101334.75;10554142;28;19924;-64
2023/05/15 09:52:41;;;;;;;;;;;;;;;20.81;57.36;101330.63;10548444;28;19931;-64
2023/05/15 09:57:43;;;;;;;;;;;;;;;20.10;58.48;101324.56;10567943;28;19924;-64
2023/05/15 10:02:46;;;;;;;;;;;;;;;19.00;60.72;101322.56;10569704;28;19950;-64
2023/05/15 10:07:50;;;;;;;;;;;;;;;20.13;58.99;101324.28;10582106;28;19930;-64
2023/05/15 10:12:53;;;;;;;;;;;;;;;19.60;62.34;101329.84;10547664;28;19924;-64
2023/05/15 10:17:55;;;;;;;;;;;;;;;21.98;58.08;101327.56;10570014;28;19923;-65
2023/05/15 10:22:58;;;;;;;;;;;;;;;21.12;57.33;101320.63;10497477;28;19928;-64
2023/05/15 10:28:00;;;;;;;;;;;;;;;20.29;62.20;101322.91;10564343;28;19923;-64
2023/05/15 10:33:06;;;;;;;;;;;;;;;21.54;58.29;101328.22;10570011;28;19924;-65
2023/05/15 10:38:08;;;;;;;;;;;;;;;21.41;58.39;101328.53;10558585;28;19930;-64
2023/05/15 10:43:10;;;;;;;;;;;;;;;20.71;60.50;101331.50;10570783;28;19931;-64
2023/05/15 10:48:13;;;;;;;;;;;;;;;20.56;59.36;101331.06;10579197;28;19924;-64
2023/05/15 10:53:15;;;;;;;;;;;;;;;18.93;61.92;101327.56;10570407;28;19971;-64
2023/05/15 10:58:24;;;;;;;;;;;;;;;19.59;61.66;101321.06;10561611;28;20015;-63
2023/05/15 11:03:36;;;;;;;;;;;;;;;19.08;64.41;101327.22;10546088;28;19924;-64
2023/05/15 11:08:50;;;;;;;;;;;;;;;19.25;64.53;101321.31;10566806;28;19930;-64
2023/05/15 11:14:04;;;;;;;;;;;;;;;19.00;64.88;101325.22;10587534;28;19924;-64
2023/05/15 11:19:20;;;;;;;;;;;;;;;18.55;65.74;101325.44;10578579;28;19931;-64
2023/05/15 11:24:29;;;;;;;;;;;;;;;18.95;64.70;101319.47;10583260;28;19977;-65
2023/05/15 11:29:32;;;;;;;;;;;;;;;18.74;66.63;101327.38;10584709;28;19969;-64
2023/05/15 11:34:34;;;;;;;;;;;;;;;19.17;66.39;101323.78;10584871;28;19924;-64
2023/05/15 11:39:37;;;;;;;;;;;;;;;19.51;65.21;101320.03;10580413;28;19969;-64
2023/05/15 11:44:40;;;;;;;;;;;;;;;19.51;64.78;101318.22;10563716;28;19950;-64
2023/05/15 11:49:42;;;;;;;;;;;;;;;20.08;63.52;101317.72;10585000;28;19938;-64
2023/05/15 11:54:44;;;;;;;;;;;;;;;19.78;64.19;101314.16;10566704;28;20038;-64
2023/05/15 11:59:47;;;;;;;;;;;;;;;19.24;66.00;101305.53;10564307;28;19924;-64
2023/05/15 12:04:50;;;;;;;;;;;;;;;18.84;67.83;101311.56;10581301;28;19923;-64
2023/05/15 12:09:52;;;;;;;;;;;;;;;18.48;69.14;101319.78;10565677;28;19931;-64
2023/05/15 12:14:58;;;;;;;;;;;;;;;18.15;68.47;101318.09;10554311;28;19924;-63
2023/05/15 12:20:00;;;;;;;;;;;;;;;18.10;70.34;101325.59;10541285;28;19977;-63
2023/05/15 12:25:03;;;;;;;;;;;;;;;17.88;71.73;101306.13;10523085;28;19931;-63
2023/05/15 12:30:06;;;;;;;;;;;;;;;18.05;73.55;101315.34;10540970;28;19989;-63
2023/05/15 12:35:08;;;;;;;;;;;;;;;18.36;71.52;101319.00;10541476;28;19928;-64
2023/05/15 12:40:11;;;;;;;;;;;;;;;18.15;72.02;101313.63;10541762;28;19925;-64
2023/05/15 12:45:14;;;;;;;;;;;;;;;18.72;71.92;101311.59;10524220;28;19929;-64
2023/05/15 12:50:17;;;;;;;;;;;;;;;18.47;72.61;101311.97;10523189;28;19924;-63
2023/05/15 12:55:23;;;;;;;;;;;;;;;18.79;71.75;101322.53;10523655;28;20212;-64
2023/05/15 13:00:26;;;;;;;;;;;;;;;17.89;71.99;101314.94;10522577;28;20301;-64
2023/05/15 13:05:32;;;;;;;;;;;;;;;17.77;72.57;101316.69;10507422;28;19971;-64
2023/05/15 13:10:35;;;;;;;;;;;;;;;18.17;71.85;101327.63;10540969;28;19931;-65
2023/05/15 13:15:38;;;;;;;;;;;;;;;17.82;73.64;101327.78;10523609;28;19950;-65
2023/05/15 13:20:44;;;;;;;;;;;;;;;18.46;70.77;101316.44;10522866;28;20405;-65
2023/05/15 13:25:46;;;;;;;;;;;;;;;18.12;69.93;101331.59;10540786;28;20489;-65
2023/05/15 13:30:48;;;;;;;;;;;;;;;18.75;67.96;101318.47;10522821;28;20294;-65
2023/05/15 13:35:51;;;;;;;;;;;;;;;18.74;66.51;101338.00;10522791;28;20300;-65
2023/05/15 13:40:53;;;;;;;;;;;;;;;18.67;68.07;101321.75;10540849;28;19924;-65
2023/05/15 13:45:56;;;;;;;;;;;;;;;18.68;67.79;101322.63;10540037;28;19924;-65
2023/05/15 13:50:58;;;;;;;;;;;;;;;20.28;63.09;101322.06;10540352;28;19950;-65
2023/05/15 13:56:00;;;;;;;;;;;;;;;20.04;62.99;101318.00;10540575;28;19928;-65
2023/05/15 14:01:04;;;;;;;;;;;;;;;19.62;65.11;101314.66;10521659;28;20465;-64
2023/05/15 14:06:06;;;;;;;;;;;;;;;19.21;67.04;101313.75;10521753;28;19924;-65
2023/05/15 14:11:08;;;;;;;;;;;;;;;20.21;63.88;101308.50;10544986;28;19990;-65
2023/05/15 14:16:10;;;;;;;;;;;;;;;20.58;62.23;101299.00;10546656;28;19928;-65
2023/05/15 14:21:13;;;;;;;;;;;;;;;21.83;59.37;101300.59;10551250;28;19947;-65
2023/05/15 14:26:15;;;;;;;;;;;;;;;19.34;64.70;101295.78;10587872;28;19973;-65
2023/05/15 14:31:17;;;;;;;;;;;;;;;19.52;65.53;101298.66;10588819;28;19923;-65
2023/05/15 14:36:20;;;;;;;;;;;;;;;18.69;68.08;101305.72;10588001;28;19950;-65
2023/05/15 14:41:22;;;;;;;;;;;;;;;17.69;71.85;101306.72;10579252;28;20440;-65
2023/05/15 14:46:24;;;;;;;;;;;;;;;17.99;71.31;101306.09;10584551;28;19930;-65
2023/05/15 14:51:27;;;;;;;;;;;;;;;18.83;68.70;101308.09;10587561;28;19924;-65
2023/05/15 14:56:29;;;;;;;;;;;;;;;18.19;69.89;101316.91;10586399;28;19931;-65
2023/05/15 15:01:31;;;;;;;;;;;;;;;19.76;64.16;101313.44;10545719;28;19924;-64
2023/05/15 15:06:34;;;;;;;;;;;;;;;18.61;66.10;101303.72;10563770;28;19963;-65
2023/05/15 15:11:36;;;;;;;;;;;;;;;17.92;69.82;101309.34;10582074;28;19930;-64
2023/05/15 15:16:38;;;;;;;;;;;;;;;17.89;71.69;101310.47;10584078;28;19924;-64
2023/05/15 15:26:48;;;;;;;;;;;;;;;17.40;73.32;101330.16;10454766;28;20288;-64
2023/05/15 15:31:50;;;;;;;;;;;;;;;17.10;74.32;101328.97;10459366;28;19971;-64
2023/05/15 15:36:52;;;;;;;;;;;;;;;16.28;77.71;101332.34;10460593;28;19925;-62
2023/05/15 15:41:55;;;;;;;;;;;;;;;16.56;77.62;101340.91;10459395;28;19925;-63
2023/05/15 15:46:57;;;;;;;;;;;;;;;16.39;79.49;101343.94;10459638;28;20322;-64
2023/05/15 15:52:01;;;;;;;;;;;;;;;16.29;79.51;101354.31;10475110;28;20202;-62
2023/05/15 15:57:03;;;;;;;;;;;;;;;16.32;79.19;101348.81;10474063;28;20411;-63
2023/05/15 16:02:06;;;;;;;;;;;;;;;16.44;79.39;101350.59;10455708;28;20272;-63
2023/05/15 16:07:08;;;;;;;;;;;;;;;16.01;80.11;101356.31;10456997;28;19932;-63
2023/05/15 16:12:10;;;;;;;;;;;;;;;16.18;78.34;101359.56;10457923;28;19929;-63
2023/05/15 16:17:12;;;;;;;;;;;;;;;16.61;78.24;101354.63;10457938;28;19975;-63
2023/05/15 16:22:16;;;;;;;;;;;;;;;16.26;79.78;101373.91;10458401;28;19936;-63
2023/05/15 16:27:18;;;;;;;;;;;;;;;16.00;79.89;101372.28;10472665;28;19992;-63
2023/05/15 16:32:20;;;;;;;;;;;;;;;15.27;82.21;101379.06;10456693;28;19932;-63
2023/05/15 16:37:23;;;;;;;;;;;;;;;15.94;80.10;101384.13;10457860;28;19931;-63
2023/05/15 16:42:25;;;;;;;;;;;;;;;15.77;80.63;101385.31;10456951;28;19931;-63
2023/05/15 16:47:27;;;;;;;;;;;;;;;15.28;83.26;101384.25;10457520;28;19925;-63
2023/05/15 16:52:29;;;;;;;;;;;;;;;14.97;84.64;101399.47;10457704;28;19929;-62
2023/05/15 16:57:31;;;;;;;;;;;;;;;14.92;83.73;101398.09;10457367;28;19925;-63
2023/05/15 17:02:34;;;;;;;;;;;;;;;15.07;83.69;101393.59;10456895;28;19986;-63
2023/05/15 17:07:37;;;;;;;;;;;;;;;14.88;84.98;101396.59;10455876;28;20298;-63
2023/05/15 17:12:39;;;;;;;;;;;;;;;14.85;85.40;101400.28;10457239;28;19925;-63
2023/05/15 17:17:42;;;;;;;;;;;;;;;14.94;83.71;101404.09;10456077;28;19932;-63
2023/05/15 17:22:44;;;;;;;;;;;;;;;14.63;83.89;101409.59;10456032;28;19978;-63
2023/05/15 17:27:47;;;;;;;;;;;;;;;14.56;81.82;101421.44;10455446;28;19929;-62
2023/05/15 17:32:49;;;;;;;;;;;;;;;14.27;83.78;101420.66;10457018;28;19933;-62
2023/05/15 17:37:52;;;;;;;;;;;;;;;14.52;82.01;101425.22;10454788;28;20291;-63
2023/05/15 17:42:54;;;;;;;;;;;;;;;14.09;82.00;101431.41;10458134;28;19924;-63
2023/05/15 17:48:02;;;;;;;;;;;;;;;13.94;83.38;101437.63;10461433;28;19932;-63
2023/05/15 17:53:05;;;;;;;;;;;;;;;13.88;83.81;101438.81;10464270;28;20004;-63
2023/05/15 17:58:07;;;;;;;;;;;;;;;14.05;84.25;101439.59;10463758;28;19947;-63
2023/05/15 18:03:09;;;;;;;;;;;;;;;14.05;83.52;101443.06;10463238;28;20403;-63
2023/05/15 18:08:11;;;;;;;;;;;;;;;14.13;84.55;101453.97;10463692;28;19925;-63
2023/05/15 18:13:14;;;;;;;;;;;;;;;13.82;85.03;101448.88;10463538;28;19929;-63
2023/05/15 18:18:17;;;;;;;;;;;;;;;13.90;84.70;101449.25;10463243;28;19980;-63
2023/05/15 18:23:19;;;;;;;;;;;;;;;13.80;85.95;101453.41;10462867;28;19925;-63
2023/05/15 18:28:21;;;;;;;;;;;;;;;13.75;85.71;101454.53;10462265;28;20384;-63
2023/05/15 18:33:23;;;;;;;;;;;;;;;13.84;85.03;101461.03;10462748;28;19925;-63
2023/05/15 18:38:25;;;;;;;;;;;;;;;13.50;86.60;101460.41;10461811;28;20330;-63
2023/05/15 18:43:28;;;;;;;;;;;;;;;13.48;87.43;101475.44;10461623;28;20371;-63
2023/05/15 18:48:30;;;;;;;;;;;;;;;13.60;88.80;101473.00;10462150;28;19932;-63
2023/05/15 18:53:33;;;;;;;;;;;;;;;13.88;87.18;101473.03;10460765;28;20391;-63
2023/05/15 18:58:35;;;;;;;;;;;;;;;13.90;87.82;101472.97;10461241;28;19932;-63
2023/05/15 19:03:37;;;;;;;;;;;;;;;13.61;89.03;101480.81;10461089;28;19928;-63
2023/05/15 19:08:39;;;;;;;;;;;;;;;13.55;88.10;101486.47;10460679;28;20281;-63
2023/05/15 19:13:42;;;;;;;;;;;;;;;13.32;90.31;101495.69;10460665;28;19975;-63
2023/05/15 19:18:44;;;;;;;;;;;;;;;13.50;89.03;101502.50;10460943;28;19978;-63
2023/05/15 19:23:48;;;;;;;;;;;;;;;13.24;91.68;101508.41;10460422;28;19979;-63
2023/05/15 19:28:51;;;;;;;;;;;;;;;13.25;94.46;101510.09;10460506;28;19925;-63
2023/05/15 19:33:54;;;;;;;;;;;;;;;13.24;93.18;101522.38;10459731;28;20371;-63
2023/05/15 19:38:56;;;;;;;;;;;;;;;12.90;95.52;101528.72;10459495;28;19932;-63
2023/05/15 19:43:59;;;;;;;;;;;;;;;12.87;97.90;101537.59;10442096;28;19925;-63
2023/05/15 19:49:01;;;;;;;;;;;;;;;12.95;97.61;101534.56;10441986;28;19925;-63
2023/05/15 19:54:04;;;;;;;;;;;;;;;12.54;100.00;101533.25;10459640;28;19929;-63
2023/05/15 19:59:06;;;;;;;;;;;;;;;12.85;98.85;101546.50;10459318;28;19924;-63
2023/05/15 20:04:12;;;;;;;;;;;;;;;12.72;98.12;101552.41;10459073;28;19931;-64
2023/05/15 20:09:14;;;;;;;;;;;;;;;12.59;100.00;101561.88;10458122;28;19933;-63
2023/05/15 20:14:16;;;;;;;;;;;;;;;12.62;99.38;101566.97;10457294;28;20371;-64
2023/05/15 20:19:23;;;;;;;;;;;;;;;12.51;98.45;101564.06;10457846;28;19929;-64
2023/05/15 20:24:26;;;;;;;;;;;;;;;12.55;99.37;101569.09;10458556;28;19931;-63
2023/05/15 20:29:28;;;;;;;;;;;;;;;12.42;100.00;101568.03;10457586;28;20039;-63
2023/05/15 20:34:31;;;;;;;;;;;;;;;12.36;99.96;101569.22;10457299;28;19925;-64
2023/05/15 20:39:33;;;;;;;;;;;;;;;12.48;99.01;101561.63;10457221;28;19984;-63
2023/05/15 20:44:37;;;;;;;;;;;;;;;12.74;98.59;101560.22;10457763;28;19929;-64
2023/05/15 20:49:40;;;;;;;;;;;;;;;12.55;99.79;101569.09;10456842;28;19929;-64
2023/05/15 20:54:42;;;;;;;;;;;;;;;12.35;100.00;101572.75;10456628;28;19939;-63
2023/05/15 20:59:44;;;;;;;;;;;;;;;12.42;100.00;101574.16;10456894;28;19935;-64
2023/05/15 21:04:46;;;;;;;;;;;;;;;12.61;100.00;101571.41;10456016;28;20390;-63
2023/05/15 21:09:49;;;;;;;;;;;;;;;12.16;100.00;101580.75;10457173;28;19975;-64
2023/05/15 21:14:51;;;;;;;;;;;;;;;12.26;100.00;101589.84;10456438;28;19979;-63
2023/05/15 21:19:56;;;;;;;;;;;;;;;12.07;100.00;101602.25;10443617;28;19925;-63
2023/05/15 21:24:58;;;;;;;;;;;;;;;11.83;100.00;101628.72;10464131;28;19932;-63
2023/05/15 21:30:00;;;;;;;;;;;;;;;11.88;100.00;101649.50;10463389;28;19932;-63
2023/05/15 21:35:03;;;;;;;;;;;;;;;11.42;100.00;101673.56;10463961;28;19933;-63
2023/05/15 21:40:05;;;;;;;;;;;;;;;11.20;100.00;101678.13;10463677;28;19925;-63
2023/05/15 21:45:07;;;;;;;;;;;;;;;11.61;100.00;101686.63;10462845;28;19929;-63
2023/05/15 21:50:10;;;;;;;;;;;;;;;11.31;100.00;101691.56;10463647;28;19978;-63
2023/05/15 21:55:12;;;;;;;;;;;;;;;10.84;100.00;101695.41;10464289;28;19978;-63
2023/05/15 22:00:15;;;;;;;;;;;;;;;11.18;100.00;101700.91;10462726;28;20019;-63
2023/05/15 22:05:17;;;;;;;;;;;;;;;10.89;100.00;101703.94;10463020;28;19935;-63
2023/05/15 22:10:19;;;;;;;;;;;;;;;10.39;100.00;101712.19;10462998;28;20375;-64
2023/05/15 22:15:22;;;;;;;;;;;;;;;10.71;100.00;101713.44;10462761;28;20315;-63
2023/05/15 22:20:24;;;;;;;;;;;;;;;10.72;100.00;101709.88;10462733;28;19928;-63
2023/05/15 22:25:27;;;;;;;;;;;;;;;10.61;100.00;101712.13;10461279;28;20048;-63
2023/05/15 22:30:29;;;;;;;;;;;;;;;10.73;100.00;101722.06;10462188;28;19925;-63
2023/05/15 22:35:31;;;;;;;;;;;;;;;10.53;100.00;101722.09;10462201;28;19931;-63
2023/05/15 22:40:33;;;;;;;;;;;;;;;10.72;100.00;101733.44;10460413;28;19971;-63
2023/05/15 22:45:36;;;;;;;;;;;;;;;10.51;100.00;101722.16;10461674;28;19948;-63
2023/05/15 22:50:38;;;;;;;;;;;;;;;10.62;100.00;101749.63;10462109;28;19935;-63
2023/05/15 22:55:41;;;;;;;;;;;;;;;10.55;100.00;101741.19;10476279;28;19925;-64
2023/05/15 23:00:43;;;;;;;;;;;;;;;10.34;100.00;101745.53;10461752;28;19951;-63
2023/05/15 23:05:45;;;;;;;;;;;;;;;10.31;100.00;101756.13;10461105;28;20380;-63
2023/05/15 23:10:47;;;;;;;;;;;;;;;10.28;100.00;101748.41;10474248;28;19933;-63
2023/05/15 23:15:49;;;;;;;;;;;;;;;10.14;100.00;101747.19;10461113;28;19932;-63
2023/05/15 23:20:52;;;;;;;;;;;;;;;10.01;100.00;101753.81;10458376;28;20032;-63
2023/05/15 23:25:54;;;;;;;;;;;;;;;9.68;100.00;101759.44;10458818;28;19925;-63
2023/05/15 23:30:56;;;;;;;;;;;;;;;10.35;100.00;101763.81;10459893;28;19978;-63
2023/05/15 23:35:59;;;;;;;;;;;;;;;9.97;100.00;101766.19;10460437;28;19976;-63
2023/05/15 23:41:01;;;;;;;;;;;;;;;10.09;100.00;101775.31;10458197;28;19925;-63
2023/05/15 23:46:03;;;;;;;;;;;;;;;9.64;100.00;101773.56;10457918;28;19971;-63
2023/05/15 23:51:05;;;;;;;;;;;;;;;9.69;100.00;101771.63;10459644;28;19928;-64
2023/05/15 23:56:08;;;;;;;;;;;;;;;9.47;100.00;101771.59;10459435;28;19929;-64
